Overview Statistics Trail Chart Weather Telemetry Raw packets
 

This is the latest recevied weather packets stored in our database for station/object 9A7DI-13. If no packets are shown the sender has not sent any weather packets the latest 10 day(s).

<< 6 7 8 9 10 11 12 >>
Time Temp. Humidity Pressure Rain* Wind** Luminosity Snow
1788556626 20° C 64% 1023.9 hPa - - - -
1788556001 20° C 64% 1023.9 hPa - - - -
1788555401 20.56° C 63% 1023.9 hPa - - - -
1788554801 20.56° C 62% 1023.9 hPa - - - -
1788554201 20.56° C 61% 1023.9 hPa - - - -
1788553601 21.11° C 59% 1024 hPa - - - -
1788553001 20.56° C 59% 1024.1 hPa - - - -
1788552401 21.11° C 58% 1024.2 hPa - - - -
1788551801 21.11° C 58% 1024.4 hPa - - - -
1788551201 21.67° C 56% 1024.5 hPa - - - -
1788550601 22.22° C 56% 1024.6 hPa - - - -
1788550001 22.78° C 52% 1024.7 hPa - - - -
1788549401 22.78° C 52% 1024.8 hPa - - - -
1788548201 23.89° C 50% 1025 hPa - - - -
1788547601 24.44° C 48% 1025 hPa - - - -
1788547001 24.44° C 46% 1025 hPa - - - -
1788546401 25° C 46% 1024.9 hPa - - - -
1788545801 24.44° C 47% 1024.8 hPa - - - -
1788545201 25.56° C 46% 1024.7 hPa - - - -
1788544625 26.11° C 43% 1024.6 hPa - - - -
1788544001 26.67° C 42% 1024.5 hPa - - - -
1788543401 27.78° C 40% 1024.6 hPa - - - -
1788542801 28.33° C 37% 1024.5 hPa - - - -
1788542201 28.89° C 35% 1024.5 hPa - - - -
1788541601 28.89° C 34% 1024.5 hPa - - - -

* Rain since midnight (hover to see other rain measurements)
** Current wind speed in m/s (hover to see current wind gust speed)